Time;durP1;ratioP1;P1;durP2;ratioP2;P2;SDS_P1;SDS_P2;PMS_P1;PMS_P2;Temp;Humidity;BMP_temperature;BMP_pressure;BME280_temperature;BME280_humidity;BME280_pressure;Samples;Min_cycle;Max_cycle;Signal;HPM_P1;HPM_P2
2022/08/05 00:02:06;;;;;;;7.40;3.65;;;20.50;99.90;;;;;;5035277;28;20152;-70
2022/08/05 00:04:32;;;;;;;6.88;3.47;;;20.50;99.90;;;;;;5033154;28;20151;-70
2022/08/05 00:06:57;;;;;;;7.50;2.92;;;20.60;99.90;;;;;;5036059;28;20041;-71
2022/08/05 00:09:23;;;;;;;7.80;3.47;;;20.60;99.90;;;;;;5033261;28;20179;-71
2022/08/05 00:11:49;;;;;;;7.65;2.80;;;20.50;99.90;;;;;;5036479;28;20202;-71
2022/08/05 00:14:15;;;;;;;6.60;2.78;;;20.50;99.90;;;;;;5035464;28;20049;-71
2022/08/05 00:16:40;;;;;;;9.93;3.20;;;20.40;99.90;;;;;;5033064;28;20149;-71
2022/08/05 00:19:06;;;;;;;7.35;3.05;;;20.40;99.90;;;;;;5032594;28;20046;-71
2022/08/05 00:21:31;;;;;;;8.57;3.00;;;20.40;99.90;;;;;;5039827;28;20044;-70
2022/08/05 00:23:59;;;;;;;6.60;2.88;;;20.40;99.90;;;;;;5036434;28;20045;-70
2022/08/05 00:26:25;;;;;;;6.68;3.10;;;20.40;99.90;;;;;;5040262;28;20068;-71
2022/08/05 00:28:51;;;;;;;8.90;3.10;;;20.50;99.90;;;;;;5036912;28;20107;-71
2022/08/05 00:31:17;;;;;;;6.05;2.67;;;20.50;99.90;;;;;;5030165;28;20441;-71
2022/08/05 00:33:42;;;;;;;6.90;3.05;;;20.50;99.90;;;;;;5028904;28;20061;-71
2022/08/05 00:36:08;;;;;;;10.05;3.45;;;20.40;99.90;;;;;;5034780;28;20037;-71
2022/08/05 00:38:34;;;;;;;6.82;2.67;;;20.50;99.90;;;;;;5042565;28;20037;-71
2022/08/05 00:41:00;;;;;;;7.65;3.20;;;20.50;99.90;;;;;;5039608;28;20060;-71
2022/08/05 00:43:26;;;;;;;8.60;3.20;;;20.40;99.90;;;;;;5041347;28;20041;-71
2022/08/05 00:45:51;;;;;;;7.70;2.97;;;20.50;99.90;;;;;;5033449;28;20045;-71
2022/08/05 00:48:19;;;;;;;9.00;2.80;;;20.40;99.90;;;;;;5039836;28;20188;-71
2022/08/05 00:50:47;;;;;;;8.93;3.10;;;20.40;99.90;;;;;;5032819;28;20310;-71
2022/08/05 00:53:18;;;;;;;7.35;3.28;;;20.50;99.90;;;;;;5035498;28;20834;-71
2022/08/05 00:55:44;;;;;;;7.68;2.95;;;20.40;99.90;;;;;;5038288;28;20059;-71
2022/08/05 00:58:11;;;;;;;7.60;2.72;;;20.40;99.90;;;;;;5042517;28;20143;-71
2022/08/05 01:00:37;;;;;;;7.25;2.90;;;20.40;99.90;;;;;;5046005;28;20115;-71
2022/08/05 01:03:03;;;;;;;7.03;2.90;;;20.40;99.90;;;;;;5038291;28;20057;-71
2022/08/05 01:05:28;;;;;;;7.55;3.05;;;20.30;99.90;;;;;;5033883;28;20057;-70
2022/08/05 01:07:55;;;;;;;6.80;3.13;;;20.30;99.90;;;;;;5038640;28;20045;-71
2022/08/05 01:10:26;;;;;;;6.70;2.80;;;20.30;99.90;;;;;;5040432;28;20044;-71
2022/08/05 01:12:55;;;;;;;8.00;2.85;;;20.30;99.90;;;;;;5035813;28;20060;-71
2022/08/05 01:15:25;;;;;;;6.55;3.28;;;20.40;99.90;;;;;;5038318;28;20037;-71
2022/08/05 01:17:59;;;;;;;7.90;2.70;;;20.30;99.90;;;;;;5035839;28;20045;-71
2022/08/05 01:20:52;;;;;;;8.18;3.03;;;20.30;99.90;;;;;;5036585;28;20132;-71
2022/08/05 01:23:47;;;;;;;6.55;3.05;;;20.30;99.90;;;;;;5048399;28;20084;-71
2022/08/05 01:26:33;;;;;;;6.93;3.00;;;20.20;99.90;;;;;;5041482;28;20491;-71
2022/08/05 01:29:12;;;;;;;7.93;2.80;;;20.20;99.90;;;;;;5036087;28;20648;-71
2022/08/05 01:31:42;;;;;;;7.10;2.88;;;20.20;99.90;;;;;;5034981;28;20073;-70
2022/08/05 01:34:46;;;;;;;9.25;3.25;;;20.20;99.90;;;;;;5032448;28;20128;-71
2022/08/05 01:37:17;;;;;;;8.32;2.88;;;20.20;99.90;;;;;;5022159;28;20095;-70
2022/08/05 01:39:45;;;;;;;6.15;3.00;;;20.20;99.90;;;;;;5043713;28;20056;-71
2022/08/05 01:42:18;;;;;;;7.88;2.80;;;20.20;99.90;;;;;;5039092;28;20476;-71
2022/08/05 01:44:46;;;;;;;8.00;2.78;;;20.20;99.90;;;;;;5032272;28;20041;-71
2022/08/05 01:47:16;;;;;;;8.77;2.70;;;20.20;99.90;;;;;;5032447;28;20056;-71
2022/08/05 01:49:43;;;;;;;7.28;2.50;;;20.20;99.90;;;;;;5038193;28;20388;-71
2022/08/05 01:52:12;;;;;;;7.50;2.78;;;20.20;99.90;;;;;;5043809;28;20084;-70
2022/08/05 01:54:54;;;;;;;6.32;2.72;;;20.20;99.90;;;;;;5041026;28;20076;-71
2022/08/05 01:57:26;;;;;;;6.68;2.60;;;20.20;99.90;;;;;;5043098;28;20108;-70
2022/08/05 01:59:56;;;;;;;6.72;2.80;;;20.20;99.90;;;;;;5038560;28;20145;-71
2022/08/05 02:02:22;;;;;;;9.23;2.80;;;20.20;99.90;;;;;;5034940;28;20051;-70
2022/08/05 02:04:50;;;;;;;7.72;2.80;;;20.10;99.90;;;;;;5034914;28;20551;-70
2022/08/05 02:07:16;;;;;;;8.10;2.83;;;20.20;99.90;;;;;;5038622;28;20505;-71
2022/08/05 02:09:43;;;;;;;9.45;3.00;;;20.20;99.90;;;;;;5038039;28;21477;-70
2022/08/05 02:12:33;;;;;;;7.05;2.55;;;20.10;99.90;;;;;;5043746;28;20056;-71
2022/08/05 02:15:08;;;;;;;7.03;2.78;;;20.20;99.90;;;;;;5042404;28;20135;-71
2022/08/05 02:17:46;;;;;;;6.72;2.63;;;20.10;99.90;;;;;;5035455;28;20072;-72
2022/08/05 02:20:18;;;;;;;4.70;2.38;;;20.10;99.90;;;;;;5038435;28;20496;-70
2022/08/05 02:22:48;;;;;;;4.53;2.35;;;20.00;99.90;;;;;;5034620;28;20093;-71
2022/08/05 02:25:20;;;;;;;8.00;2.33;;;20.10;99.90;;;;;;5040632;28;20121;-70
2022/08/05 02:27:48;;;;;;;6.35;2.97;;;20.10;99.90;;;;;;5039620;28;20049;-70
2022/08/05 02:30:15;;;;;;;6.70;3.00;;;20.00;99.90;;;;;;5034741;28;20045;-71
2022/08/05 02:32:44;;;;;;;8.30;2.90;;;20.00;99.90;;;;;;5033663;28;20053;-70
2022/08/05 02:35:14;;;;;;;8.68;3.08;;;19.90;99.90;;;;;;5034447;28;20045;-71
2022/08/05 02:37:42;;;;;;;7.93;2.95;;;19.90;99.90;;;;;;5035397;28;20049;-70
2022/08/05 02:40:09;;;;;;;8.27;2.40;;;19.80;99.90;;;;;;5032152;28;20044;-70
2022/08/05 02:42:36;;;;;;;8.35;3.00;;;19.90;99.90;;;;;;5038206;28;20511;-70
2022/08/05 02:45:03;;;;;;;6.53;2.90;;;19.90;99.90;;;;;;5040810;28;20041;-71
2022/08/05 02:47:30;;;;;;;7.32;2.85;;;19.90;99.90;;;;;;5037036;28;20059;-71
2022/08/05 02:49:56;;;;;;;7.65;2.50;;;19.90;99.90;;;;;;5030225;28;20384;-70
2022/08/05 02:52:23;;;;;;;8.75;2.95;;;19.90;99.90;;;;;;5036548;28;20119;-71
2022/08/05 02:54:50;;;;;;;7.60;3.00;;;19.90;99.90;;;;;;5042008;28;20048;-70
2022/08/05 02:57:17;;;;;;;7.25;2.45;;;19.80;99.90;;;;;;5039960;28;20052;-71
2022/08/05 02:59:48;;;;;;;6.65;2.85;;;19.80;99.90;;;;;;5037620;28;20326;-70
2022/08/05 03:02:18;;;;;;;8.05;3.00;;;19.80;99.90;;;;;;5038992;28;20102;-71
2022/08/05 03:04:45;;;;;;;6.78;2.88;;;19.90;99.90;;;;;;5036417;28;20049;-71
2022/08/05 03:07:12;;;;;;;7.18;2.72;;;19.90;99.90;;;;;;5034676;28;20057;-70
2022/08/05 03:09:41;;;;;;;6.00;2.70;;;19.80;99.90;;;;;;5035869;28;20043;-71
2022/08/05 03:12:06;;;;;;;5.47;2.70;;;19.80;99.90;;;;;;5042776;28;20154;-71
2022/08/05 03:14:32;;;;;;;5.28;2.60;;;19.80;99.90;;;;;;5038305;28;20041;-70
2022/08/05 03:16:58;;;;;;;6.35;2.83;;;19.80;99.90;;;;;;5039573;28;20424;-70
2022/08/05 03:19:24;;;;;;;7.38;2.83;;;19.70;99.90;;;;;;5036772;28;20040;-70
2022/08/05 03:21:50;;;;;;;6.50;2.95;;;19.70;99.90;;;;;;5038034;28;20349;-70
2022/08/05 03:24:18;;;;;;;9.95;3.58;;;19.70;99.90;;;;;;5035632;28;20054;-71
2022/08/05 03:26:44;;;;;;;6.05;2.75;;;19.70;99.90;;;;;;5032277;28;20049;-71
2022/08/05 03:29:10;;;;;;;7.10;3.13;;;19.70;99.90;;;;;;5032309;28;20049;-71
2022/08/05 03:31:36;;;;;;;6.82;2.85;;;19.70;99.90;;;;;;5033845;28;20219;-70
2022/08/05 03:34:02;;;;;;;8.60;3.20;;;19.70;99.90;;;;;;5031003;28;20045;-71
2022/08/05 03:36:29;;;;;;;6.43;2.72;;;19.60;99.90;;;;;;5034628;28;20056;-70
2022/08/05 03:38:54;;;;;;;7.82;3.25;;;19.60;99.90;;;;;;5035067;28;20072;-69
2022/08/05 03:41:20;;;;;;;6.85;3.28;;;19.60;99.90;;;;;;5035845;28;20340;-70
2022/08/05 03:43:46;;;;;;;7.45;2.70;;;19.60;99.90;;;;;;5029978;28;20036;-70
2022/08/05 03:46:11;;;;;;;7.50;3.00;;;19.60;99.90;;;;;;5034170;28;20036;-70
2022/08/05 03:48:37;;;;;;;6.80;3.50;;;19.60;99.90;;;;;;5036533;28;20181;-71
2022/08/05 03:51:27;;;;;;;8.15;3.00;;;19.60;99.90;;;;;;5038684;28;20132;-70
2022/08/05 03:54:20;;;;;;;7.68;3.00;;;19.60;99.90;;;;;;5037558;28;20040;-70
2022/08/05 03:56:46;;;;;;;7.85;2.80;;;19.50;99.90;;;;;;5041544;28;20048;-71
2022/08/05 03:59:26;;;;;;;8.02;3.47;;;19.60;99.90;;;;;;5035106;28;20471;-70
2022/08/05 04:01:54;;;;;;;9.25;3.10;;;19.60;99.90;;;;;;5035088;28;20055;-70
2022/08/05 04:04:21;;;;;;;6.70;3.22;;;19.50;99.90;;;;;;5032402;28;20401;-70
2022/08/05 04:06:47;;;;;;;7.43;3.00;;;19.40;99.90;;;;;;5034800;28;20500;-71
2022/08/05 04:09:14;;;;;;;6.85;2.95;;;19.50;99.90;;;;;;5036974;28;20471;-69
2022/08/05 04:11:40;;;;;;;7.38;3.35;;;19.50;99.90;;;;;;5042050;28;20056;-70
2022/08/05 04:14:06;;;;;;;8.23;3.90;;;19.50;99.90;;;;;;5042807;28;21134;-70
2022/08/05 04:16:34;;;;;;;7.25;3.35;;;19.50;99.90;;;;;;5046623;28;20047;-70
2022/08/05 04:19:00;;;;;;;7.35;3.40;;;19.40;99.90;;;;;;5045285;28;20439;-70
2022/08/05 04:21:27;;;;;;;8.80;3.75;;;19.30;99.90;;;;;;5035189;28;20522;-70
2022/08/05 04:23:52;;;;;;;8.45;3.67;;;19.30;99.90;;;;;;5047741;28;20029;-70
2022/08/05 04:26:18;;;;;;;7.30;3.47;;;19.30;99.90;;;;;;5041567;28;20039;-70
2022/08/05 04:28:44;;;;;;;8.30;3.35;;;19.30;99.90;;;;;;5043264;28;20151;-69
2022/08/05 04:31:10;;;;;;;7.50;3.35;;;19.30;99.90;;;;;;5045856;28;20037;-69
2022/08/05 04:33:36;;;;;;;8.00;3.60;;;19.30;99.90;;;;;;5049177;28;20041;-70
2022/08/05 04:36:02;;;;;;;7.07;3.10;;;19.30;99.90;;;;;;5039715;28;20106;-70
2022/08/05 04:38:27;;;;;;;7.63;3.53;;;19.30;99.90;;;;;;5044188;28;20400;-70
2022/08/05 04:40:53;;;;;;;7.25;3.33;;;19.20;99.90;;;;;;5039560;28;20037;-70
2022/08/05 04:43:19;;;;;;;7.13;3.35;;;19.30;99.90;;;;;;5042938;28;20059;-70
2022/08/05 04:45:44;;;;;;;6.82;3.30;;;19.20;99.90;;;;;;5040640;28;20052;-71
2022/08/05 04:48:13;;;;;;;8.05;2.97;;;19.30;99.90;;;;;;5032824;28;20034;-70
2022/08/05 04:50:46;;;;;;;6.57;3.42;;;19.30;99.90;;;;;;5045156;28;20116;-72
2022/08/05 04:53:13;;;;;;;6.90;3.15;;;19.30;99.90;;;;;;5044674;28;20179;-71
2022/08/05 04:55:40;;;;;;;7.22;3.30;;;19.40;99.90;;;;;;5041294;28;20129;-72
2022/08/05 04:58:07;;;;;;;7.25;3.22;;;19.40;99.90;;;;;;5043974;28;20059;-71
2022/08/05 05:00:34;;;;;;;6.45;3.13;;;19.40;99.90;;;;;;5038158;28;22119;-69
2022/08/05 05:03:00;;;;;;;6.32;3.00;;;19.40;99.90;;;;;;5037181;28;20103;-70
2022/08/05 05:05:26;;;;;;;6.07;2.92;;;19.40;99.90;;;;;;5041240;28;20068;-69
2022/08/05 05:07:53;;;;;;;6.93;3.00;;;19.40;99.90;;;;;;5049737;28;20424;-70
2022/08/05 05:10:18;;;;;;;4.90;2.92;;;19.40;99.90;;;;;;5042642;28;20186;-70
2022/08/05 05:12:44;;;;;;;8.32;3.28;;;19.40;99.90;;;;;;5045652;28;20076;-70
2022/08/05 05:15:09;;;;;;;6.28;2.90;;;19.40;99.90;;;;;;5043302;28;20042;-70
2022/08/05 05:17:39;;;;;;;7.75;3.42;;;19.40;99.90;;;;;;5043722;28;20383;-70
2022/08/05 05:20:06;;;;;;;7.43;2.85;;;19.40;99.90;;;;;;5037644;28;20457;-70
2022/08/05 05:22:33;;;;;;;7.22;3.20;;;19.40;99.90;;;;;;5034508;28;20048;-70
2022/08/05 05:24:58;;;;;;;6.40;2.90;;;19.50;99.90;;;;;;5043630;28;20132;-69
2022/08/05 05:27:24;;;;;;;6.45;3.03;;;19.50;99.90;;;;;;5031830;28;20041;-69
2022/08/05 05:29:50;;;;;;;5.65;3.10;;;19.50;99.90;;;;;;5033583;28;20487;-69
2022/08/05 05:32:15;;;;;;;7.30;3.00;;;19.50;99.90;;;;;;5025092;28;20037;-69
2022/08/05 05:34:41;;;;;;;7.15;3.38;;;19.50;99.90;;;;;;5042670;28;20615;-70
2022/08/05 05:37:06;;;;;;;6.82;2.90;;;19.40;99.90;;;;;;5042605;28;20056;-71
2022/08/05 05:39:32;;;;;;;7.32;3.15;;;19.40;99.90;;;;;;5044213;28;20043;-71
2022/08/05 05:41:57;;;;;;;7.88;3.10;;;19.30;99.90;;;;;;5040030;28;20368;-70
2022/08/05 05:44:23;;;;;;;5.90;3.10;;;19.30;99.90;;;;;;5039649;28;20041;-74
2022/08/05 05:46:48;;;;;;;6.20;2.78;;;19.30;99.90;;;;;;5035754;28;20050;-71
2022/08/05 05:49:14;;;;;;;6.88;3.20;;;19.30;99.90;;;;;;5040714;28;20045;-72
2022/08/05 05:51:39;;;;;;;6.53;3.20;;;19.30;99.90;;;;;;5040320;28;20112;-72
2022/08/05 05:54:05;;;;;;;4.78;2.65;;;19.40;99.90;;;;;;5042780;28;20117;-70
2022/08/05 05:56:31;;;;;;;6.45;3.05;;;19.40;99.90;;;;;;5035985;28;20477;-70
2022/08/05 05:58:56;;;;;;;9.27;2.95;;;19.40;99.90;;;;;;5041227;28;20411;-71
2022/08/05 06:01:22;;;;;;;7.55;2.50;;;19.50;99.90;;;;;;5045622;28;20086;-70
2022/08/05 06:03:48;;;;;;;7.82;2.67;;;19.60;99.90;;;;;;5042754;28;20091;-69
2022/08/05 06:06:13;;;;;;;6.93;3.00;;;19.80;99.90;;;;;;5040336;28;20045;-72
2022/08/05 06:08:39;;;;;;;6.43;2.88;;;20.00;99.90;;;;;;5047908;28;20455;-70
2022/08/05 06:11:05;;;;;;;4.45;2.40;;;20.10;99.90;;;;;;5042939;28;20114;-69
2022/08/05 06:13:31;;;;;;;5.95;2.90;;;20.10;99.90;;;;;;5044293;28;20048;-70
2022/08/05 06:15:56;;;;;;;8.43;2.50;;;20.20;99.90;;;;;;5061301;28;20478;-69
2022/08/05 06:18:22;;;;;;;6.07;2.60;;;20.10;99.90;;;;;;5045327;28;20055;-72
2022/08/05 06:20:48;;;;;;;5.65;2.67;;;20.10;99.90;;;;;;5035755;28;20442;-71
2022/08/05 06:23:13;;;;;;;7.68;2.95;;;20.00;99.90;;;;;;5044784;28;20153;-72
2022/08/05 06:25:39;;;;;;;6.93;3.00;;;20.00;99.90;;;;;;5043071;28;20045;-72
2022/08/05 06:28:04;;;;;;;6.20;2.70;;;20.10;99.90;;;;;;5040595;28;20084;-72
2022/08/05 06:30:30;;;;;;;6.47;2.40;;;20.10;99.90;;;;;;5038633;28;20051;-72
2022/08/05 06:32:55;;;;;;;5.78;2.20;;;20.20;99.90;;;;;;5047350;28;20037;-71
2022/08/05 06:35:21;;;;;;;5.15;2.25;;;20.40;99.90;;;;;;5047535;28;20507;-72
2022/08/05 06:37:47;;;;;;;6.45;2.22;;;20.60;99.90;;;;;;5044516;28;20036;-72
2022/08/05 06:40:13;;;;;;;5.28;2.30;;;20.70;99.90;;;;;;5039560;28;20083;-72
2022/08/05 06:42:38;;;;;;;4.97;2.10;;;20.80;99.90;;;;;;5046565;28;20393;-72
2022/08/05 06:45:04;;;;;;;6.03;2.00;;;20.90;99.90;;;;;;5044983;28;20034;-72
2022/08/05 06:47:30;;;;;;;5.07;2.00;;;21.00;99.90;;;;;;5040045;28;20115;-72
2022/08/05 06:49:56;;;;;;;5.43;1.63;;;21.00;99.90;;;;;;5034911;28;20119;-71
2022/08/05 06:52:22;;;;;;;5.95;1.75;;;21.00;99.90;;;;;;5045199;28;20048;-72
2022/08/05 06:54:47;;;;;;;6.18;2.00;;;21.00;99.90;;;;;;5047332;28;20362;-71
2022/08/05 06:57:15;;;;;;;5.55;1.63;;;21.10;99.90;;;;;;5036977;28;20041;-72
2022/08/05 06:59:40;;;;;;;5.20;1.55;;;21.30;99.90;;;;;;5043575;28;20041;-71
2022/08/05 07:02:07;;;;;;;3.80;1.67;;;21.30;99.90;;;;;;5042670;28;20033;-71
2022/08/05 07:04:32;;;;;;;5.53;1.60;;;21.40;99.90;;;;;;5042967;28;20045;-71
2022/08/05 07:06:58;;;;;;;3.47;1.40;;;21.40;99.90;;;;;;5044893;28;20141;-71
2022/08/05 07:09:24;;;;;;;6.13;1.73;;;21.50;99.90;;;;;;5038003;28;20044;-71
2022/08/05 07:11:50;;;;;;;5.00;1.60;;;21.60;99.90;;;;;;5040790;28;20135;-71
2022/08/05 07:17:00;;;;;;;3.47;1.40;;;21.70;99.90;;;;;;5037863;28;20101;-71
2022/08/05 07:19:27;;;;;;;3.10;1.40;;;21.90;99.90;;;;;;5036448;28;20037;-71
2022/08/05 07:21:54;;;;;;;3.78;1.33;;;21.90;99.90;;;;;;5041864;28;20444;-71
2022/08/05 07:24:20;;;;;;;4.00;1.42;;;21.70;99.90;;;;;;5046913;28;20045;-71
2022/08/05 07:26:46;;;;;;;4.47;1.45;;;21.70;99.90;;;;;;5041841;28;20054;-71
2022/08/05 07:29:12;;;;;;;5.00;1.30;;;21.70;99.90;;;;;;5039643;28;20049;-71
2022/08/05 07:31:38;;;;;;;3.25;1.30;;;21.70;99.90;;;;;;5042709;28;20072;-71
2022/08/05 07:34:04;;;;;;;2.88;1.20;;;21.70;99.90;;;;;;5037441;28;20045;-71
2022/08/05 07:36:32;;;;;;;4.28;1.27;;;21.60;99.90;;;;;;5040993;28;20045;-71
2022/08/05 07:39:01;;;;;;;5.28;1.20;;;21.60;99.90;;;;;;5043377;28;20047;-70
2022/08/05 07:41:26;;;;;;;3.55;1.38;;;21.60;99.90;;;;;;5039015;28;20108;-71
2022/08/05 07:43:53;;;;;;;3.25;1.42;;;21.60;99.90;;;;;;5040326;28;20129;-71
2022/08/05 07:46:19;;;;;;;4.97;1.50;;;21.50;99.90;;;;;;5045276;28;20048;-71
2022/08/05 07:48:44;;;;;;;4.80;1.50;;;21.40;99.90;;;;;;5041998;28;20037;-70
2022/08/05 07:51:10;;;;;;;3.92;1.38;;;21.50;99.90;;;;;;5015012;28;20056;-72
2022/08/05 07:53:36;;;;;;;4.50;1.20;;;21.50;99.90;;;;;;5044793;28;20119;-70
2022/08/05 07:56:04;;;;;;;3.67;1.30;;;21.60;99.90;;;;;;5042773;28;20045;-71
2022/08/05 07:58:30;;;;;;;4.47;1.48;;;21.80;99.90;;;;;;5037878;28;20045;-69
2022/08/05 08:00:55;;;;;;;3.95;1.10;;;22.10;99.90;;;;;;5043443;28;20047;-70
2022/08/05 08:03:21;;;;;;;3.45;1.45;;;22.20;99.90;;;;;;5045036;28;20087;-70
2022/08/05 08:05:49;;;;;;;4.22;1.30;;;22.40;99.90;;;;;;5039212;28;20053;-70
2022/08/05 08:08:16;;;;;;;5.38;1.38;;;22.30;99.90;;;;;;5044898;28;20084;-70
2022/08/05 08:10:41;;;;;;;4.20;1.13;;;22.40;99.90;;;;;;5036604;28;20151;-70
2022/08/05 08:13:07;;;;;;;3.58;0.98;;;22.50;99.90;;;;;;5039181;28;20052;-70
2022/08/05 08:15:32;;;;;;;3.83;1.25;;;22.60;99.90;;;;;;5046910;28;20037;-70
2022/08/05 08:17:58;;;;;;;3.65;1.05;;;22.50;99.90;;;;;;5044150;28;20041;-70
2022/08/05 08:20:24;;;;;;;5.15;1.67;;;22.40;99.90;;;;;;5046384;28;20159;-70
2022/08/05 08:22:52;;;;;;;5.35;1.25;;;22.30;99.90;;;;;;5046494;28;20051;-72
2022/08/05 08:25:18;;;;;;;3.03;1.30;;;22.40;99.90;;;;;;5040797;28;20048;-70
2022/08/05 08:27:44;;;;;;;3.97;1.20;;;22.50;99.90;;;;;;5048765;28;20052;-70
2022/08/05 08:30:12;;;;;;;2.63;0.90;;;22.60;99.90;;;;;;5046781;28;20041;-69
2022/08/05 08:32:38;;;;;;;3.65;0.73;;;22.50;99.80;;;;;;5035403;28;20172;-69
2022/08/05 08:35:04;;;;;;;2.97;1.08;;;22.40;99.60;;;;;;5035167;28;20546;-69
2022/08/05 08:37:29;;;;;;;3.30;1.30;;;22.50;99.30;;;;;;5042325;28;20037;-69
2022/08/05 08:39:55;;;;;;;1.95;0.90;;;22.50;99.20;;;;;;5047455;28;20048;-69
2022/08/05 08:42:22;;;;;;;4.07;1.10;;;22.50;99.10;;;;;;5043811;28;20041;-69
2022/08/05 08:44:49;;;;;;;3.20;1.00;;;22.50;98.40;;;;;;5044095;28;20064;-69
2022/08/05 08:47:17;;;;;;;2.85;1.00;;;22.60;98.10;;;;;;5035558;28;20084;-69
2022/08/05 08:49:44;;;;;;;2.85;0.88;;;22.70;97.80;;;;;;5045455;28;20571;-69
2022/08/05 08:52:21;;;;;;;2.35;0.80;;;22.90;97.50;;;;;;5036171;28;20088;-69
2022/08/05 08:54:48;;;;;;;3.72;0.90;;;22.70;97.60;;;;;;5027042;28;20465;-69
2022/08/05 08:57:14;;;;;;;3.85;0.90;;;22.70;98.00;;;;;;5044733;28;20090;-69
2022/08/05 08:59:40;;;;;;;3.08;1.15;;;22.70;97.80;;;;;;5035251;28;20041;-69
2022/08/05 09:02:06;;;;;;;3.28;1.00;;;22.80;96.60;;;;;;5045381;28;20120;-69
2022/08/05 09:04:36;;;;;;;2.65;0.90;;;22.90;96.00;;;;;;5042574;28;20045;-69
2022/08/05 09:07:04;;;;;;;2.08;0.82;;;23.00;95.50;;;;;;5047949;28;20072;-69
2022/08/05 09:09:31;;;;;;;2.33;0.70;;;23.10;94.90;;;;;;5033949;28;20444;-68
2022/08/05 09:11:57;;;;;;;3.60;0.90;;;23.00;93.70;;;;;;5047506;28;20114;-69
2022/08/05 09:14:23;;;;;;;2.05;0.80;;;23.10;93.90;;;;;;5049523;28;20041;-69
2022/08/05 09:16:48;;;;;;;3.95;0.60;;;23.20;93.80;;;;;;5042138;28;20080;-69
2022/08/05 09:19:14;;;;;;;5.72;0.85;;;23.10;92.10;;;;;;5045309;28;20041;-68
2022/08/05 09:21:40;;;;;;;2.45;0.70;;;23.00;91.50;;;;;;5040875;28;20124;-69
2022/08/05 09:24:11;;;;;;;1.83;0.63;;;23.00;91.60;;;;;;5042114;28;20052;-68
2022/08/05 09:26:38;;;;;;;1.83;0.60;;;23.10;91.60;;;;;;5046964;28;20459;-68
2022/08/05 09:29:08;;;;;;;3.08;0.50;;;23.20;91.90;;;;;;5048613;28;20430;-68
2022/08/05 09:31:34;;;;;;;3.83;0.60;;;23.20;91.00;;;;;;5049345;28;20057;-68
2022/08/05 09:34:04;;;;;;;3.30;0.80;;;23.20;90.90;;;;;;5043466;28;20140;-68
2022/08/05 09:36:56;;;;;;;3.20;0.80;;;23.20;90.50;;;;;;5046904;28;20057;-68
2022/08/05 09:39:23;;;;;;;4.30;0.73;;;23.30;90.60;;;;;;5029913;28;20049;-68
2022/08/05 09:42:02;;;;;;;3.60;0.95;;;23.20;90.80;;;;;;5042092;28;20413;-68
2022/08/05 09:44:38;;;;;;;4.95;0.73;;;23.10;90.00;;;;;;5033544;28;20040;-68
2022/08/05 09:47:11;;;;;;;1.30;0.65;;;23.10;89.90;;;;;;5042666;28;20056;-68
2022/08/05 09:49:45;;;;;;;1.70;0.50;;;23.20;89.00;;;;;;5039776;28;20129;-70
2022/08/05 09:52:28;;;;;;;2.10;0.60;;;23.30;85.90;;;;;;5041145;28;20093;-69
2022/08/05 09:54:59;;;;;;;3.33;0.60;;;23.20;85.10;;;;;;5040487;28;20064;-69
2022/08/05 09:57:37;;;;;;;2.20;0.60;;;23.20;85.10;;;;;;5042105;28;20119;-69
2022/08/05 10:00:09;;;;;;;2.10;0.57;;;23.20;84.00;;;;;;5035972;28;20072;-69
2022/08/05 10:02:40;;;;;;;3.75;0.73;;;23.40;86.20;;;;;;5045406;28;20122;-69
2022/08/05 10:05:10;;;;;;;3.22;0.70;;;23.50;86.30;;;;;;5034075;28;20057;-69
2022/08/05 10:07:55;;;;;;;2.33;0.63;;;23.30;84.90;;;;;;5041709;28;20151;-69
2022/08/05 10:10:24;;;;;;;3.95;0.52;;;23.30;86.30;;;;;;5044087;28;20053;-68
2022/08/05 10:12:55;;;;;;;1.48;0.50;;;23.30;86.40;;;;;;5039578;28;20049;-68
2022/08/05 10:15:24;;;;;;;2.10;0.60;;;23.30;82.20;;;;;;5041608;28;20124;-68
2022/08/05 10:18:02;;;;;;;2.97;0.60;;;23.10;81.70;;;;;;5045640;28;20053;-68
2022/08/05 10:20:28;;;;;;;1.70;0.60;;;23.00;78.10;;;;;;5043452;28;20076;-70
2022/08/05 10:22:54;;;;;;;2.15;0.60;;;22.80;78.50;;;;;;5039857;28;20147;-70
2022/08/05 10:25:20;;;;;;;1.73;0.52;;;22.80;78.50;;;;;;5041677;28;20056;-69
2022/08/05 10:27:46;;;;;;;1.77;0.45;;;22.90;78.10;;;;;;5050759;28;20045;-70
2022/08/05 10:30:11;;;;;;;1.65;0.40;;;23.10;77.00;;;;;;5038669;28;20045;-69
2022/08/05 10:32:38;;;;;;;2.22;0.50;;;23.20;76.10;;;;;;5034270;28;20383;-70
2022/08/05 10:35:04;;;;;;;2.33;0.40;;;23.20;74.10;;;;;;5046218;28;20036;-70
2022/08/05 10:37:32;;;;;;;1.17;0.25;;;23.20;72.80;;;;;;5036232;28;20219;-71
2022/08/05 10:40:03;;;;;;;0.70;0.30;;;23.30;71.90;;;;;;5042442;28;20045;-71
2022/08/05 10:42:35;;;;;;;0.82;0.30;;;23.40;71.20;;;;;;5046047;28;20065;-71
2022/08/05 10:45:02;;;;;;;1.80;0.45;;;23.50;70.70;;;;;;5039868;28;20338;-71
2022/08/05 10:47:35;;;;;;;0.88;0.30;;;23.50;69.50;;;;;;5033986;28;20037;-71
2022/08/05 10:50:05;;;;;;;0.45;0.30;;;23.50;67.60;;;;;;5046838;28;20102;-71
2022/08/05 10:52:38;;;;;;;2.22;0.52;;;23.50;68.20;;;;;;5040591;28;20049;-71
2022/08/05 10:55:08;;;;;;;3.73;0.70;;;23.70;69.70;;;;;;5031379;28;20053;-74
2022/08/05 10:57:34;;;;;;;1.60;0.45;;;23.70;67.50;;;;;;5041604;28;20315;-72
2022/08/05 11:00:17;;;;;;;1.95;0.50;;;23.80;66.00;;;;;;5034232;28;21842;-72
2022/08/05 11:03:09;;;;;;;1.20;0.40;;;23.90;65.30;;;;;;5035974;28;20045;-72
2022/08/05 11:05:35;;;;;;;1.13;0.40;;;24.20;67.40;;;;;;5047544;28;20144;-72
2022/08/05 11:08:03;;;;;;;1.38;0.30;;;24.50;65.30;;;;;;5050684;28;20411;-72
2022/08/05 11:10:30;;;;;;;1.95;0.40;;;24.40;63.80;;;;;;5050208;28;20044;-72
2022/08/05 11:12:57;;;;;;;1.60;0.40;;;24.40;63.00;;;;;;5045439;28;20065;-71
2022/08/05 11:15:29;;;;;;;1.55;0.30;;;24.30;63.20;;;;;;5038946;28;20033;-72
2022/08/05 11:18:06;;;;;;;2.03;0.52;;;24.50;63.40;;;;;;5039136;28;20049;-72
2022/08/05 11:20:45;;;;;;;0.93;0.40;;;24.50;61.70;;;;;;5038945;28;20508;-73
2022/08/05 11:23:30;;;;;;;1.58;0.40;;;24.60;60.70;;;;;;5032586;28;20120;-71
2022/08/05 11:26:05;;;;;;;2.42;0.40;;;24.50;63.10;;;;;;5040141;28;20055;-71
2022/08/05 11:28:31;;;;;;;0.80;0.38;;;24.50;61.70;;;;;;5041595;28;20060;-73
2022/08/05 11:30:57;;;;;;;3.97;0.52;;;24.50;61.10;;;;;;5042698;28;20052;-72
2022/08/05 11:33:28;;;;;;;1.65;0.52;;;24.40;62.40;;;;;;5042857;28;20041;-72
2022/08/05 11:35:57;;;;;;;1.13;0.32;;;24.50;62.40;;;;;;5036031;28;20079;-72
2022/08/05 11:38:53;;;;;;;0.80;0.43;;;24.50;60.90;;;;;;5040289;28;20060;-72
2022/08/05 11:41:26;;;;;;;0.65;0.43;;;24.60;59.90;;;;;;5045314;28;20115;-72
2022/08/05 11:44:09;;;;;;;2.13;0.50;;;24.60;60.70;;;;;;5046531;28;20053;-72
2022/08/05 11:46:50;;;;;;;1.13;0.30;;;24.70;62.40;;;;;;5043862;28;20076;-73
2022/08/05 11:49:18;;;;;;;2.58;0.50;;;24.70;63.40;;;;;;5037217;28;20360;-71
2022/08/05 11:51:50;;;;;;;2.47;0.40;;;24.80;62.80;;;;;;5045561;28;20065;-73
2022/08/05 11:54:32;;;;;;;1.27;0.50;;;24.80;61.50;;;;;;5040892;28;20136;-72
2022/08/05 11:56:59;;;;;;;1.38;0.40;;;24.50;60.30;;;;;;5035251;28;20123;-75
2022/08/05 11:59:27;;;;;;;1.50;0.70;;;24.30;60.50;;;;;;5044296;28;20037;-75
2022/08/05 12:01:59;;;;;;;1.80;0.35;;;24.30;62.60;;;;;;5035088;28;20124;-74
2022/08/05 12:04:27;;;;;;;0.95;0.40;;;24.30;63.50;;;;;;5041360;28;20107;-75
2022/08/05 12:06:54;;;;;;;0.82;0.40;;;24.10;63.90;;;;;;5042492;28;20491;-79
2022/08/05 12:09:25;;;;;;;4.28;0.55;;;24.20;63.00;;;;;;5035696;28;20110;-73
2022/08/05 12:11:51;;;;;;;2.33;0.52;;;24.30;62.80;;;;;;5034826;28;20086;-79
2022/08/05 12:14:17;;;;;;;1.05;0.35;;;24.50;63.40;;;;;;5042933;28;20038;-73
2022/08/05 12:16:46;;;;;;;3.33;0.40;;;24.50;63.50;;;;;;5041167;28;20049;-79
2022/08/05 12:19:13;;;;;;;2.53;0.50;;;24.30;64.30;;;;;;5043425;28;20447;-80
2022/08/05 12:21:48;;;;;;;1.27;0.30;;;24.50;65.20;;;;;;5036714;28;20041;-74
2022/08/05 12:24:20;;;;;;;1.17;0.30;;;24.30;65.30;;;;;;5030917;28;20057;-78
2022/08/05 12:26:48;;;;;;;2.17;0.43;;;24.20;63.90;;;;;;5044874;28;20072;-74
2022/08/05 12:29:24;;;;;;;1.20;0.47;;;24.40;64.00;;;;;;5052530;28;20144;-77
2022/08/05 12:31:55;;;;;;;3.55;0.40;;;24.10;63.70;;;;;;5042460;28;20119;-74
2022/08/05 12:34:27;;;;;;;3.65;0.82;;;24.10;63.50;;;;;;5045719;28;20045;-75
2022/08/05 12:36:54;;;;;;;2.35;0.40;;;23.80;65.10;;;;;;5039104;28;20418;-76
2022/08/05 12:39:20;;;;;;;1.30;0.52;;;23.90;66.40;;;;;;5042127;28;20143;-74
2022/08/05 12:41:46;;;;;;;1.75;0.50;;;23.80;67.10;;;;;;5044365;28;20041;-75
2022/08/05 12:44:14;;;;;;;3.55;0.50;;;23.70;66.80;;;;;;5042578;28;20127;-75
2022/08/05 12:46:41;;;;;;;2.40;0.50;;;23.50;66.40;;;;;;5040309;28;20095;-75
2022/08/05 12:49:14;;;;;;;3.47;0.50;;;23.70;65.60;;;;;;5037911;28;20040;-75
2022/08/05 12:51:51;;;;;;;1.55;0.43;;;23.90;65.80;;;;;;5041987;28;20044;-75
2022/08/05 12:54:30;;;;;;;2.45;0.50;;;23.80;67.60;;;;;;5047209;28;20041;-76
2022/08/05 12:57:01;;;;;;;3.50;0.50;;;24.10;68.50;;;;;;5046810;28;20047;-76
2022/08/05 12:59:42;;;;;;;1.00;0.43;;;24.10;67.70;;;;;;5039788;28;20045;-72